Time;durP1;ratioP1;P1;durP2;ratioP2;P2;SDS_P1;SDS_P2;PMS_P1;PMS_P2;Temp;Humidity;BMP_temperature;BMP_pressure;BME280_temperature;BME280_humidity;BME280_pressure;Samples;Min_cycle;Max_cycle;Signal;HPM_P1;HPM_P2
2021/04/15 00:00:01;;;;;;;4.00;2.10;;;3.70;99.90;;;;;;5110480;28;20204;-77
2021/04/15 00:02:47;;;;;;;4.83;2.00;;;3.80;99.90;;;;;;5108375;28;20697;-77
2021/04/15 00:05:33;;;;;;;6.73;2.20;;;3.80;99.90;;;;;;5111139;28;20240;-78
2021/04/15 00:08:21;;;;;;;8.93;2.20;;;3.80;99.90;;;;;;5120861;27;20197;-77
2021/04/15 00:11:06;;;;;;;4.70;2.20;;;3.80;99.90;;;;;;5108031;28;20250;-78
2021/04/15 00:13:53;;;;;;;3.97;2.00;;;3.80;99.90;;;;;;5101794;28;20204;-77
2021/04/15 00:16:39;;;;;;;10.40;1.80;;;3.80;99.90;;;;;;5114608;28;20208;-77
2021/04/15 00:19:23;;;;;;;4.47;1.70;;;3.80;99.90;;;;;;5102206;28;20243;-77
2021/04/15 00:22:10;;;;;;;4.07;1.40;;;3.90;99.90;;;;;;5100951;28;20213;-77
2021/04/15 00:24:55;;;;;;;5.63;1.60;;;3.90;99.90;;;;;;5094566;28;20267;-77
2021/04/15 00:27:40;;;;;;;2.60;1.50;;;3.90;99.90;;;;;;5102258;28;20205;-78
2021/04/15 00:30:25;;;;;;;4.60;1.90;;;3.90;99.90;;;;;;5096112;28;20245;-78
2021/04/15 00:33:11;;;;;;;4.63;1.60;;;3.90;99.90;;;;;;5101574;28;20212;-77
2021/04/15 00:35:56;;;;;;;6.80;1.83;;;4.00;99.90;;;;;;5112940;28;20282;-77
2021/04/15 00:38:41;;;;;;;3.07;1.30;;;4.00;99.90;;;;;;5096450;28;20252;-78
2021/04/15 00:41:27;;;;;;;4.23;1.40;;;4.00;99.90;;;;;;5095680;28;20281;-77
2021/04/15 00:44:12;;;;;;;3.73;1.50;;;4.00;99.90;;;;;;5105932;28;20266;-77
2021/04/15 00:47:00;;;;;;;4.03;1.23;;;4.10;99.90;;;;;;5113572;28;20850;-78
2021/04/15 00:49:51;;;;;;;3.63;1.70;;;4.10;99.90;;;;;;5102572;28;20208;-78
2021/04/15 00:52:41;;;;;;;5.13;1.57;;;4.10;99.90;;;;;;5098290;28;20202;-78
2021/04/15 00:55:30;;;;;;;6.57;1.70;;;4.20;99.90;;;;;;5095157;28;20244;-78
2021/04/15 00:58:16;;;;;;;3.87;1.60;;;4.20;99.90;;;;;;5109277;28;20745;-78
2021/04/15 01:01:01;;;;;;;4.17;1.87;;;4.20;99.90;;;;;;5107350;28;20219;-78
2021/04/15 01:03:47;;;;;;;7.67;1.73;;;4.30;99.90;;;;;;5129808;28;20197;-78
2021/04/15 01:06:32;;;;;;;3.60;1.50;;;4.30;99.90;;;;;;5096656;28;20228;-78
2021/04/15 01:09:18;;;;;;;4.97;1.50;;;4.30;99.90;;;;;;5095767;28;20711;-78
2021/04/15 01:12:26;;;;;;;2.17;1.30;;;4.30;99.90;;;;;;5100487;28;20206;-78
2021/04/15 01:15:25;;;;;;;1.23;1.10;;;4.40;99.90;;;;;;5096060;28;20259;-78
2021/04/15 01:18:17;;;;;;;3.03;1.30;;;4.40;99.90;;;;;;5117504;22;20731;-77
2021/04/15 01:21:22;;;;;;;2.93;1.13;;;4.40;99.90;;;;;;5066432;28;20260;-75
2021/04/15 01:24:11;;;;;;;1.17;0.90;;;4.40;99.90;;;;;;5065383;28;20237;-76
2021/04/15 01:27:18;;;;;;;2.30;1.13;;;4.50;99.90;;;;;;5067097;28;20317;-78
2021/04/15 01:30:13;;;;;;;3.17;1.10;;;4.50;99.90;;;;;;5062160;28;20276;-76
2021/04/15 01:33:09;;;;;;;5.37;1.20;;;4.60;99.90;;;;;;5066478;28;20516;-76
2021/04/15 01:35:58;;;;;;;4.00;1.10;;;4.50;99.90;;;;;;5068592;28;20546;-75
2021/04/15 01:38:47;;;;;;;2.17;1.43;;;4.50;99.90;;;;;;5063832;28;20224;-76
2021/04/15 01:41:35;;;;;;;4.03;1.90;;;4.60;99.90;;;;;;5069218;28;20246;-76
2021/04/15 01:44:26;;;;;;;4.57;3.10;;;4.50;99.90;;;;;;5065684;28;20245;-76
2021/04/15 01:47:17;;;;;;;6.00;3.00;;;4.60;99.90;;;;;;5065060;28;20222;-76
2021/04/15 01:50:08;;;;;;;5.80;3.13;;;4.60;99.90;;;;;;5070216;28;20283;-77
2021/04/15 01:52:56;;;;;;;9.23;5.23;;;4.60;99.90;;;;;;5068271;28;20852;-76
2021/04/15 01:55:45;;;;;;;9.40;5.50;;;4.60;99.90;;;;;;5059807;28;20279;-76
2021/04/15 01:58:34;;;;;;;8.73;5.03;;;4.60;99.90;;;;;;5071318;28;20307;-76
2021/04/15 02:01:23;;;;;;;7.47;5.00;;;4.60;99.90;;;;;;5071092;28;20695;-76
2021/04/15 02:04:12;;;;;;;7.80;4.53;;;4.60;99.90;;;;;;5064520;28;20257;-76
2021/04/15 02:07:03;;;;;;;8.47;5.00;;;4.60;99.90;;;;;;5065246;28;20227;-77
2021/04/15 02:09:51;;;;;;;7.57;4.13;;;4.60;99.90;;;;;;5078203;28;20730;-76
2021/04/15 02:12:39;;;;;;;5.73;4.40;;;4.60;99.90;;;;;;5067883;28;20198;-76
2021/04/15 02:15:27;;;;;;;6.60;4.53;;;4.50;99.90;;;;;;5069253;28;20361;-76
2021/04/15 02:18:18;;;;;;;6.73;4.50;;;4.50;99.90;;;;;;5070684;28;20214;-77
2021/04/15 02:21:09;;;;;;;5.83;3.80;;;4.50;99.90;;;;;;5052527;28;20615;-76
2021/04/15 02:24:01;;;;;;;6.70;3.70;;;4.40;99.90;;;;;;5056546;28;20561;-76
2021/04/15 02:26:51;;;;;;;5.93;3.43;;;4.40;99.90;;;;;;5070609;28;20702;-76
2021/04/15 02:29:41;;;;;;;5.83;3.20;;;4.40;99.90;;;;;;5059867;28;20218;-77
2021/04/15 02:32:30;;;;;;;5.27;3.10;;;4.40;99.90;;;;;;5057736;28;20561;-77
2021/04/15 02:35:21;;;;;;;8.70;3.47;;;4.40;99.90;;;;;;5070428;28;20237;-76
2021/04/15 02:38:07;;;;;;;11.30;4.63;;;4.40;99.90;;;;;;5061149;28;20210;-76
2021/04/15 02:40:56;;;;;;;11.00;4.37;;;4.40;99.90;;;;;;5070958;28;20762;-75
2021/04/15 02:43:44;;;;;;;8.43;3.90;;;4.40;99.90;;;;;;5065203;28;20194;-76
2021/04/15 02:46:33;;;;;;;7.90;3.63;;;4.40;99.90;;;;;;5064414;28;20260;-76
2021/04/15 02:49:21;;;;;;;6.67;3.13;;;4.30;99.90;;;;;;5068850;28;20230;-76
2021/04/15 02:52:10;;;;;;;6.33;3.03;;;4.20;99.90;;;;;;5064515;28;20960;-75
2021/04/15 02:55:01;;;;;;;5.37;2.83;;;4.20;99.90;;;;;;5065560;28;20211;-76
2021/04/15 02:57:50;;;;;;;4.00;2.50;;;4.20;99.90;;;;;;5062815;28;20718;-76
2021/04/15 03:00:38;;;;;;;5.37;2.33;;;4.10;99.90;;;;;;5070858;28;20209;-75
2021/04/15 03:03:29;;;;;;;4.43;2.30;;;4.10;99.90;;;;;;5068205;28;20213;-76
2021/04/15 03:06:17;;;;;;;3.87;2.17;;;4.00;99.90;;;;;;5054833;28;20353;-76
2021/04/15 03:09:05;;;;;;;4.53;1.60;;;4.00;99.90;;;;;;5065519;28;20230;-76
2021/04/15 03:11:54;;;;;;;2.53;1.20;;;3.90;99.90;;;;;;5066940;28;20198;-75
2021/04/15 03:14:44;;;;;;;1.20;1.10;;;3.90;99.90;;;;;;5067533;28;20234;-77
2021/04/15 03:17:31;;;;;;;3.13;1.17;;;3.80;99.90;;;;;;5055689;28;20277;-76
2021/04/15 03:20:21;;;;;;;3.57;1.77;;;3.80;99.90;;;;;;5074038;28;20238;-76
2021/04/15 03:23:12;;;;;;;2.03;1.33;;;3.80;99.90;;;;;;5061861;28;20246;-75
2021/04/15 03:26:00;;;;;;;4.10;1.47;;;3.70;99.90;;;;;;5062201;28;20282;-76
2021/04/15 03:28:56;;;;;;;3.53;1.50;;;3.70;99.90;;;;;;5072238;28;20230;-75
2021/04/15 03:31:54;;;;;;;2.63;1.80;;;3.60;99.90;;;;;;5072533;28;20204;-75
2021/04/15 03:34:44;;;;;;;3.00;1.20;;;3.60;99.90;;;;;;5073378;28;20255;-76
2021/04/15 03:37:35;;;;;;;3.53;1.50;;;3.60;99.90;;;;;;5071962;28;20222;-75
2021/04/15 03:40:24;;;;;;;2.00;1.60;;;3.50;99.90;;;;;;5069970;28;20337;-76
2021/04/15 03:43:12;;;;;;;3.10;1.63;;;3.50;99.90;;;;;;5065130;28;20230;-75
2021/04/15 03:46:07;;;;;;;3.80;1.90;;;3.50;99.90;;;;;;5071891;28;20244;-76
2021/04/15 03:48:57;;;;;;;2.33;1.73;;;3.50;99.90;;;;;;5065172;28;20262;-77
2021/04/15 03:51:47;;;;;;;3.97;1.80;;;3.50;99.90;;;;;;5066384;28;20203;-75
2021/04/15 03:54:38;;;;;;;2.60;1.80;;;3.40;99.90;;;;;;5069785;28;20213;-76
2021/04/15 03:57:24;;;;;;;2.03;1.53;;;3.40;99.90;;;;;;5065369;28;20202;-76
2021/04/15 04:00:12;;;;;;;2.67;1.60;;;3.40;99.90;;;;;;5056159;28;21920;-76
2021/04/15 04:03:04;;;;;;;3.00;2.27;;;3.40;99.90;;;;;;5068151;28;20225;-76
2021/04/15 04:05:55;;;;;;;2.63;1.97;;;3.30;99.90;;;;;;5061272;28;20257;-75
2021/04/15 04:08:46;;;;;;;3.47;2.07;;;3.30;99.90;;;;;;5064736;28;20269;-76
2021/04/15 04:11:34;;;;;;;2.80;1.93;;;3.30;99.90;;;;;;5075440;28;20202;-76
2021/04/15 04:14:23;;;;;;;4.80;2.60;;;3.30;99.90;;;;;;5072783;28;20206;-76
2021/04/15 04:17:14;;;;;;;4.20;2.63;;;3.30;99.90;;;;;;5073352;28;20234;-75
2021/04/15 04:19:59;;;;;;;4.97;2.60;;;3.30;99.90;;;;;;5064678;28;20663;-75
2021/04/15 04:22:50;;;;;;;5.60;2.50;;;3.20;99.90;;;;;;5057172;28;20257;-76
2021/04/15 04:25:41;;;;;;;5.97;2.97;;;3.30;99.90;;;;;;5053517;28;20245;-75
2021/04/15 04:28:33;;;;;;;7.07;3.10;;;3.20;99.90;;;;;;5070023;28;20242;-74
2021/04/15 04:31:22;;;;;;;6.47;3.40;;;3.20;99.90;;;;;;5072584;28;20198;-74
2021/04/15 04:34:08;;;;;;;7.47;3.23;;;3.20;99.90;;;;;;5068402;28;20250;-74
2021/04/15 04:36:55;;;;;;;7.67;3.67;;;3.20;99.90;;;;;;5067700;28;20214;-75
2021/04/15 04:39:40;;;;;;;7.27;4.27;;;3.20;99.90;;;;;;5058258;28;20235;-76
2021/04/15 04:42:32;;;;;;;6.80;3.60;;;3.20;99.90;;;;;;5069970;28;20300;-76
2021/04/15 04:45:18;;;;;;;8.10;3.70;;;3.20;99.90;;;;;;5069969;28;20650;-76
2021/04/15 04:48:06;;;;;;;5.83;3.87;;;3.20;99.90;;;;;;5060295;28;20303;-76
2021/04/15 04:50:55;;;;;;;4.40;3.33;;;3.20;99.90;;;;;;5067829;28;20216;-75
2021/04/15 04:53:43;;;;;;;4.70;2.90;;;3.20;99.90;;;;;;5065301;28;20276;-76
2021/04/15 04:56:33;;;;;;;5.13;3.07;;;3.20;99.90;;;;;;5068020;28;20269;-75
2021/04/15 04:59:24;;;;;;;5.17;3.00;;;3.10;99.90;;;;;;5052437;28;20285;-75
2021/04/15 05:02:11;;;;;;;5.33;3.40;;;3.10;99.90;;;;;;5067200;28;20232;-75
2021/04/15 05:05:06;;;;;;;4.60;3.13;;;3.00;99.90;;;;;;5069972;28;20241;-76
2021/04/15 05:07:57;;;;;;;5.70;2.77;;;2.90;99.90;;;;;;5065328;28;20577;-75
2021/04/15 05:10:43;;;;;;;6.23;3.07;;;2.90;99.90;;;;;;5050389;28;20238;-76
2021/04/15 05:13:30;;;;;;;7.90;3.30;;;2.80;99.90;;;;;;5059353;28;20231;-76
2021/04/15 05:16:15;;;;;;;6.63;3.77;;;2.70;99.90;;;;;;5071850;28;20234;-75
2021/04/15 05:19:00;;;;;;;4.53;3.00;;;2.60;99.90;;;;;;5059449;28;20233;-75
2021/04/15 05:21:46;;;;;;;6.37;3.67;;;2.60;99.90;;;;;;5069241;28;20711;-76
2021/04/15 05:24:38;;;;;;;7.40;4.00;;;2.60;99.90;;;;;;5069648;28;20229;-76
2021/04/15 05:27:26;;;;;;;7.53;3.70;;;2.50;99.90;;;;;;5065834;28;20728;-75
2021/04/15 05:30:20;;;;;;;6.60;4.10;;;2.40;99.90;;;;;;5060825;28;20213;-75
2021/04/15 05:33:07;;;;;;;7.17;3.90;;;2.40;99.90;;;;;;5060484;28;20562;-76
2021/04/15 05:35:55;;;;;;;7.27;3.93;;;2.40;99.90;;;;;;5067634;28;20329;-76
2021/04/15 05:38:44;;;;;;;9.50;4.43;;;2.30;99.90;;;;;;5064381;28;20594;-77
2021/04/15 05:41:32;;;;;;;12.70;5.27;;;2.30;99.90;;;;;;5064118;28;20225;-76
2021/04/15 05:44:23;;;;;;;10.37;4.60;;;2.30;99.90;;;;;;5064280;28;20959;-76
2021/04/15 05:47:14;;;;;;;8.13;4.73;;;2.20;99.90;;;;;;5057872;28;20238;-76
2021/04/15 05:50:04;;;;;;;9.20;4.27;;;2.20;99.90;;;;;;5055737;28;20326;-76
2021/04/15 05:52:54;;;;;;;8.70;4.60;;;2.20;99.90;;;;;;5066756;28;20345;-76
2021/04/15 05:55:47;;;;;;;7.60;4.83;;;2.20;99.90;;;;;;5057838;28;20206;-76
2021/04/15 05:58:36;;;;;;;8.90;4.63;;;2.10;99.90;;;;;;5070469;28;20323;-75
2021/04/15 06:01:32;;;;;;;11.00;5.00;;;2.10;99.90;;;;;;5061001;28;20225;-76
2021/04/15 06:04:25;;;;;;;10.30;5.77;;;2.10;99.90;;;;;;5069049;28;20218;-75
2021/04/15 06:07:16;;;;;;;10.20;5.03;;;2.10;99.90;;;;;;5066819;28;20746;-75
2021/04/15 06:10:01;;;;;;;9.90;5.23;;;2.10;99.90;;;;;;5058040;28;20284;-76
2021/04/15 06:12:53;;;;;;;10.53;5.43;;;2.10;99.90;;;;;;5061973;28;20202;-76
2021/04/15 06:15:42;;;;;;;10.90;5.13;;;2.00;99.90;;;;;;5052597;28;20203;-76
2021/04/15 06:18:33;;;;;;;10.23;5.37;;;2.10;99.90;;;;;;5065258;28;20353;-75
2021/04/15 06:21:21;;;;;;;11.17;5.43;;;2.10;99.90;;;;;;5058287;28;20353;-76
2021/04/15 06:24:10;;;;;;;9.07;5.67;;;2.10;99.90;;;;;;5055675;28;20283;-76
2021/04/15 06:26:58;;;;;;;11.70;5.80;;;2.10;99.90;;;;;;5053899;28;20215;-76
2021/04/15 06:29:49;;;;;;;9.13;6.27;;;2.10;99.90;;;;;;5054397;28;20242;-74
2021/04/15 06:32:42;;;;;;;14.33;6.27;;;2.10;99.90;;;;;;5057150;28;20238;-74
2021/04/15 06:35:30;;;;;;;12.23;6.03;;;2.20;99.90;;;;;;5062890;28;20244;-75
2021/04/15 06:38:21;;;;;;;12.83;7.13;;;2.20;99.90;;;;;;5060005;28;20201;-76
2021/04/15 06:41:33;;;;;;;15.50;8.00;;;2.20;99.90;;;;;;5053468;28;20226;-76
2021/04/15 06:44:45;;;;;;;12.77;7.87;;;2.30;99.90;;;;;;5058753;28;20209;-76
2021/04/15 06:48:15;;;;;;;18.07;9.10;;;2.40;99.90;;;;;;5054560;28;20569;-76
2021/04/15 06:51:28;;;;;;;26.07;9.60;;;2.50;99.90;;;;;;5067356;28;20201;-76
2021/04/15 06:54:28;;;;;;;21.03;8.17;;;2.60;99.90;;;;;;5069425;28;20209;-76
2021/04/15 06:57:25;;;;;;;19.07;8.93;;;2.70;99.90;;;;;;5061773;28;20275;-76
2021/04/15 07:00:22;;;;;;;21.07;9.10;;;2.80;99.90;;;;;;5056633;28;20248;-75
2021/04/15 07:03:14;;;;;;;23.80;9.13;;;2.90;99.90;;;;;;5066144;28;20206;-76
2021/04/15 07:06:05;;;;;;;28.93;10.97;;;3.10;99.90;;;;;;5059828;28;20226;-76
2021/04/15 07:09:18;;;;;;;23.17;10.60;;;3.30;99.90;;;;;;5069143;28;20223;-76
2021/04/15 07:12:16;;;;;;;26.90;10.93;;;3.50;99.90;;;;;;5049918;28;20565;-76
2021/04/15 07:15:24;;;;;;;31.97;12.10;;;3.70;99.90;;;;;;5057947;28;20195;-76
2021/04/15 07:18:46;;;;;;;32.43;14.60;;;3.90;99.90;;;;;;5069502;28;20206;-76
2021/04/15 07:21:53;;;;;;;29.67;13.07;;;4.10;99.90;;;;;;5068797;28;20201;-76
2021/04/15 07:24:52;;;;;;;31.60;13.37;;;4.40;99.90;;;;;;5066561;28;20209;-76
2021/04/15 07:28:05;;;;;;;29.60;14.30;;;4.60;99.90;;;;;;5076947;22;20802;-80
2021/04/15 07:31:23;;;;;;;30.13;12.17;;;4.90;99.90;;;;;;5078942;28;20771;-80
2021/04/15 07:34:33;;;;;;;25.23;11.00;;;5.10;99.90;;;;;;5091554;28;20209;-80
2021/04/15 07:37:31;;;;;;;29.47;11.47;;;5.30;99.90;;;;;;5095081;28;20221;-80
2021/04/15 07:40:43;;;;;;;21.57;9.37;;;5.50;99.90;;;;;;5087416;28;20320;-81
2021/04/15 07:43:50;;;;;;;14.43;7.60;;;5.70;99.90;;;;;;5089002;28;20302;-80
2021/04/15 07:46:43;;;;;;;16.87;8.23;;;6.00;99.90;;;;;;5081421;28;20312;-81
2021/04/15 07:49:55;;;;;;;14.03;6.20;;;6.20;99.90;;;;;;5090990;28;20206;-80
2021/04/15 07:53:16;;;;;;;14.93;5.40;;;6.50;99.90;;;;;;5097502;28;20244;-80
2021/04/15 07:56:50;;;;;;;7.93;4.60;;;6.80;99.90;;;;;;5064792;28;20646;-80
2021/04/15 08:00:07;;;;;;;7.17;4.63;;;7.10;99.90;;;;;;5090640;28;20214;-81
2021/04/15 08:03:11;;;;;;;6.17;3.27;;;7.40;99.90;;;;;;5085916;28;20205;-82
2021/04/15 08:06:35;;;;;;;7.87;3.67;;;7.60;99.90;;;;;;5095204;28;20204;-81
2021/04/15 08:09:50;;;;;;;5.57;3.27;;;7.90;99.90;;;;;;5095541;28;20632;-81
2021/04/15 08:12:55;;;;;;;8.03;3.33;;;8.10;99.90;;;;;;5090770;28;20287;-81
2021/04/15 08:16:08;;;;;;;8.97;3.73;;;8.30;99.90;;;;;;5089692;28;20209;-81
2021/04/15 08:19:06;;;;;;;8.10;3.53;;;8.40;99.90;;;;;;5085757;28;20244;-80
2021/04/15 08:21:58;;;;;;;8.67;3.53;;;8.60;99.90;;;;;;5098764;28;20214;-81
2021/04/15 08:24:58;;;;;;;5.53;2.97;;;8.70;99.90;;;;;;5086845;28;20298;-81
2021/04/15 08:28:01;;;;;;;7.67;3.47;;;8.90;99.90;;;;;;5087672;28;20229;-82
2021/04/15 08:31:04;;;;;;;6.33;3.20;;;8.90;99.90;;;;;;5098063;28;20212;-81
2021/04/15 08:33:57;;;;;;;7.53;3.57;;;9.00;99.90;;;;;;5081633;28;20222;-81
2021/04/15 08:37:04;;;;;;;6.43;3.40;;;9.00;99.90;;;;;;5087579;28;20205;-81
2021/04/15 08:40:01;;;;;;;6.77;3.47;;;9.00;99.90;;;;;;5086124;28;20201;-81
2021/04/15 08:43:04;;;;;;;6.40;3.30;;;9.00;99.90;;;;;;5091457;28;20197;-80
2021/04/15 08:45:55;;;;;;;5.13;2.57;;;9.10;99.90;;;;;;5097010;28;20282;-82
2021/04/15 08:49:00;;;;;;;6.03;2.30;;;9.10;99.90;;;;;;5091980;28;20229;-80
2021/04/15 08:51:53;;;;;;;3.33;2.40;;;9.10;99.90;;;;;;5092169;28;20293;-80
2021/04/15 08:54:46;;;;;;;5.53;2.30;;;9.20;99.90;;;;;;5095101;28;20363;-80
2021/04/15 08:57:41;;;;;;;5.30;2.83;;;9.20;99.90;;;;;;5091904;28;20233;-81
2021/04/15 09:00:34;;;;;;;5.50;2.63;;;9.20;99.90;;;;;;5099237;28;20744;-81
2021/04/15 09:03:31;;;;;;;4.53;2.50;;;9.30;99.90;;;;;;5093614;28;20283;-81
2021/04/15 09:06:24;;;;;;;6.43;2.60;;;9.30;99.90;;;;;;5091560;28;20671;-81
2021/04/15 09:09:21;;;;;;;3.03;1.93;;;9.40;99.90;;;;;;5098037;28;20237;-82
2021/04/15 09:12:26;;;;;;;3.47;2.27;;;9.50;99.90;;;;;;5078732;28;20241;-81
2021/04/15 09:15:17;;;;;;;4.77;2.20;;;9.70;99.90;;;;;;5086556;28;20552;-81
2021/04/15 09:18:11;;;;;;;5.90;2.57;;;9.80;99.90;;;;;;5100744;28;20217;-82
2021/04/15 09:21:15;;;;;;;5.87;2.63;;;9.90;99.90;;;;;;5087262;28;20743;-82
2021/04/15 09:24:13;;;;;;;5.10;2.73;;;10.10;99.90;;;;;;5087036;28;21037;-82
2021/04/15 09:27:21;;;;;;;4.87;1.40;;;10.40;99.90;;;;;;5092796;28;20878;-82
2021/04/15 09:30:21;;;;;;;5.13;1.57;;;10.90;99.90;;;;;;5098115;28;20200;-82
2021/04/15 09:33:15;;;;;;;4.63;1.80;;;11.30;99.90;;;;;;5079592;28;20220;-81
2021/04/15 09:36:10;;;;;;;3.97;1.57;;;11.70;99.90;;;;;;5083510;28;20228;-81
2021/04/15 09:39:21;;;;;;;3.20;2.00;;;12.00;99.90;;;;;;5098075;28;20232;-82
2021/04/15 09:42:35;;;;;;;3.37;1.67;;;12.10;99.90;;;;;;5089844;28;20631;-79
2021/04/15 09:45:50;;;;;;;6.63;2.03;;;12.20;99.90;;;;;;5094836;28;20196;-80
2021/04/15 09:48:53;;;;;;;3.10;1.50;;;12.30;99.90;;;;;;5087316;28;20229;-81
2021/04/15 09:52:32;;;;;;;1.97;1.40;;;12.70;99.90;;;;;;5083583;28;20292;-81
2021/04/15 09:55:32;;;;;;;2.47;1.20;;;13.60;99.90;;;;;;5082283;28;20202;-81
2021/04/15 09:58:27;;;;;;;2.83;1.30;;;14.60;99.90;;;;;;5094816;28;20295;-81
2021/04/15 10:01:17;;;;;;;2.03;1.40;;;15.60;99.90;;;;;;5095584;28;20296;-81
2021/04/15 10:04:07;;;;;;;1.53;1.10;;;16.60;99.90;;;;;;5094096;28;20211;-82
2021/04/15 10:06:58;;;;;;;1.93;1.20;;;17.50;99.90;;;;;;5094473;28;20217;-82
2021/04/15 10:09:57;;;;;;;1.37;1.27;;;18.60;99.90;;;;;;5094934;28;20198;-82
2021/04/15 10:12:56;;;;;;;3.33;1.47;;;19.20;99.20;;;;;;5092281;28;20256;-81
2021/04/15 10:15:51;;;;;;;1.63;1.30;;;19.80;91.90;;;;;;5079006;28;20206;-81
2021/04/15 10:19:03;;;;;;;3.73;1.27;;;20.10;85.00;;;;;;5076188;28;20226;-81
2021/04/15 10:21:58;;;;;;;2.10;0.70;;;20.10;81.90;;;;;;5089916;28;20783;-82
2021/04/15 10:24:47;;;;;;;2.80;1.17;;;19.90;72.90;;;;;;5077884;28;20297;-81
2021/04/15 10:27:58;;;;;;;3.43;1.33;;;19.90;73.70;;;;;;5084791;28;20267;-81
2021/04/15 10:31:22;;;;;;;4.00;1.43;;;20.10;74.10;;;;;;5095774;28;20216;-82
2021/04/15 10:34:34;;;;;;;2.70;1.53;;;20.50;76.10;;;;;;5079741;28;20227;-82
2021/04/15 10:37:33;;;;;;;2.57;1.30;;;21.10;73.60;;;;;;5083327;28;20234;-83
2021/04/15 10:40:56;;;;;;;1.70;1.13;;;21.70;62.60;;;;;;5094275;28;20728;-82
2021/04/15 10:44:12;;;;;;;2.70;1.30;;;22.40;64.10;;;;;;5080359;28;20228;-82
2021/04/15 10:47:12;;;;;;;2.37;1.30;;;23.10;63.80;;;;;;5094426;28;20238;-83
2021/04/15 10:50:08;;;;;;;1.00;0.90;;;23.80;63.30;;;;;;5080004;28;20461;-82
2021/04/15 10:53:06;;;;;;;2.33;1.13;;;24.40;57.20;;;;;;5081711;28;20217;-82
2021/04/15 10:56:05;;;;;;;1.77;1.30;;;24.90;59.00;;;;;;5074825;28;20211;-81
2021/04/15 10:58:52;;;;;;;1.37;1.27;;;25.30;58.50;;;;;;5085276;28;20335;-83
2021/04/15 11:01:40;;;;;;;1.43;1.20;;;25.90;54.50;;;;;;5095376;28;20714;-82
2021/04/15 11:04:29;;;;;;;1.97;1.13;;;26.40;54.30;;;;;;5081867;28;20220;-82
2021/04/15 11:07:18;;;;;;;1.40;1.20;;;26.90;51.90;;;;;;5083317;28;20684;-82
2021/04/15 11:10:10;;;;;;;2.80;1.35;;;27.00;49.50;;;;;;5093819;28;20212;-82
2021/04/15 11:13:21;;;;;;;2.33;1.13;;;26.80;50.10;;;;;;5094920;28;20276;-81
2021/04/15 11:16:18;;;;;;;2.13;1.30;;;26.50;50.50;;;;;;5086217;28;20666;-82
2021/04/15 11:19:10;;;;;;;1.70;1.30;;;26.20;50.60;;;;;;5106335;28;20248;-82
2021/04/15 11:21:57;;;;;;;2.40;1.30;;;26.10;53.40;;;;;;5090249;28;20211;-82
2021/04/15 11:24:43;;;;;;;2.03;1.30;;;26.30;50.00;;;;;;5085911;28;20211;-82
2021/04/15 11:27:37;;;;;;;2.17;1.30;;;26.40;50.20;;;;;;5084043;28;20228;-81
2021/04/15 11:30:39;;;;;;;2.17;1.40;;;26.50;49.90;;;;;;5088789;28;20272;-81
2021/04/15 11:33:34;;;;;;;3.13;1.47;;;26.50;51.30;;;;;;5085259;28;20209;-83
2021/04/15 11:36:25;;;;;;;1.57;1.30;;;26.30;51.60;;;;;;5092322;28;20224;-82
2021/04/15 11:39:16;;;;;;;1.40;1.20;;;26.30;52.00;;;;;;5093042;28;20250;-82
2021/04/15 11:42:05;;;;;;;2.83;1.70;;;26.50;49.00;;;;;;5101930;28;20240;-82
2021/04/15 11:44:57;;;;;;;1.47;1.37;;;26.60;48.00;;;;;;5100422;28;20201;-81
2021/04/15 11:47:43;;;;;;;3.50;1.63;;;26.50;47.00;;;;;;5082482;28;20275;-82
2021/04/15 11:50:28;;;;;;;2.33;1.60;;;26.30;46.00;;;;;;5080555;28;20204;-83
2021/04/15 11:53:38;;;;;;;1.83;1.57;;;26.10;47.70;;;;;;5099318;28;20284;-82
2021/04/15 11:56:33;;;;;;;2.93;1.50;;;25.60;47.90;;;;;;5100622;28;20248;-83
2021/04/15 11:59:25;;;;;;;3.03;1.60;;;25.30;49.00;;;;;;5088397;28;20608;-81
2021/04/15 12:02:16;;;;;;;2.50;1.57;;;24.60;49.40;;;;;;5090130;28;20282;-81
2021/04/15 12:05:17;;;;;;;2.27;1.77;;;24.00;49.20;;;;;;5097609;28;20219;-82
2021/04/15 12:08:08;;;;;;;3.43;2.17;;;23.50;50.20;;;;;;5099224;28;20261;-82
2021/04/15 12:11:01;;;;;;;3.10;1.70;;;22.90;52.00;;;;;;5091579;28;20246;-81
2021/04/15 12:13:51;;;;;;;2.93;2.17;;;22.40;53.20;;;;;;5100084;28;20207;-83
2021/04/15 12:16:47;;;;;;;4.30;1.80;;;22.00;54.80;;;;;;5104414;28;20222;-83
2021/04/15 12:19:49;;;;;;;2.20;2.00;;;21.90;55.20;;;;;;5118285;28;20319;-83
2021/04/15 12:22:46;;;;;;;2.50;2.00;;;22.00;55.00;;;;;;5114870;28;20187;-84
2021/04/15 12:25:35;;;;;;;2.30;1.80;;;22.50;52.70;;;;;;5107888;28;20690;-82
2021/04/15 12:28:32;;;;;;;3.00;2.27;;;23.10;49.80;;;;;;5088609;28;20633;-83
2021/04/15 12:31:29;;;;;;;3.80;2.20;;;23.40;49.90;;;;;;5106392;28;20199;-82
2021/04/15 12:34:39;;;;;;;2.20;2.00;;;23.70;50.20;;;;;;5087621;28;20557;-83
2021/04/15 12:37:28;;;;;;;5.33;2.47;;;23.80;50.80;;;;;;5082672;28;20228;-82
2021/04/15 12:40:23;;;;;;;3.10;2.40;;;23.60;49.10;;;;;;5088131;28;20223;-82
2021/04/15 12:43:13;;;;;;;2.60;2.30;;;23.60;48.60;;;;;;5092806;28;20224;-83
2021/04/15 12:46:00;;;;;;;2.57;2.00;;;23.70;50.40;;;;;;5087425;28;20690;-83
2021/04/15 12:48:50;;;;;;;3.93;2.10;;;24.00;48.70;;;;;;5089272;28;20226;-84
2021/04/15 12:51:38;;;;;;;4.03;2.50;;;24.30;48.80;;;;;;5097982;28;20201;-83
2021/04/15 12:54:28;;;;;;;3.10;2.17;;;24.50;46.90;;;;;;5101567;28;20229;-83
2021/04/15 12:57:15;;;;;;;4.13;2.10;;;24.60;47.90;;;;;;5101419;28;20220;-83
2021/04/15 13:00:06;;;;;;;3.93;2.10;;;24.50;46.80;;;;;;5087039;28;20196;-84
2021/04/15 13:02:52;;;;;;;3.93;2.53;;;24.30;47.90;;;;;;5100391;28;20694;-83
2021/04/15 13:06:07;;;;;;;2.73;2.13;;;24.00;47.40;;;;;;5101953;28;20211;-82
2021/04/15 13:08:54;;;;;;;2.53;1.90;;;23.60;51.30;;;;;;5101189;28;20246;-84
2021/04/15 13:11:41;;;;;;;4.60;2.70;;;23.10;51.00;;;;;;5097896;28;20263;-83
2021/04/15 13:14:39;;;;;;;4.53;2.40;;;22.80;51.50;;;;;;5093690;28;20212;-83
2021/04/15 13:17:45;;;;;;;3.07;2.33;;;22.40;54.30;;;;;;5089293;28;20241;-83
2021/04/15 13:20:42;;;;;;;2.83;2.40;;;22.30;51.90;;;;;;5105228;28;20211;-83
2021/04/15 13:23:44;;;;;;;3.03;2.10;;;22.40;52.00;;;;;;5094436;28;20272;-83
2021/04/15 13:26:34;;;;;;;3.63;2.30;;;22.60;51.20;;;;;;5094101;28;20253;-83
2021/04/15 13:29:22;;;;;;;5.13;2.57;;;22.90;50.50;;;;;;5086809;28;20286;-84
2021/04/15 13:32:19;;;;;;;4.77;2.63;;;23.30;49.80;;;;;;5082490;28;20717;-84
2021/04/15 13:35:20;;;;;;;3.63;2.30;;;23.70;49.10;;;;;;5095288;28;20726;-82
2021/04/15 13:38:42;;;;;;;3.70;2.53;;;23.90;48.40;;;;;;5131934;22;20288;-80
2021/04/15 13:41:59;;;;;;;6.57;2.57;;;23.90;47.30;;;;;;5087351;28;20258;-79
2021/04/15 13:44:57;;;;;;;3.03;2.53;;;23.70;49.00;;;;;;5076102;28;20241;-79
2021/04/15 13:48:00;;;;;;;3.13;2.10;;;23.60;51.70;;;;;;5094526;28;20273;-80
2021/04/15 13:51:20;;;;;;;3.53;2.43;;;23.70;52.20;;;;;;5097118;28;20268;-80
2021/04/15 13:54:27;;;;;;;4.00;2.43;;;24.00;49.30;;;;;;5080459;28;20271;-80
2021/04/15 13:57:16;;;;;;;4.23;2.70;;;24.30;49.10;;;;;;5094602;28;20336;-80
2021/04/15 14:00:03;;;;;;;5.50;2.40;;;24.60;45.40;;;;;;5098689;28;20781;-80
2021/04/15 14:02:53;;;;;;;4.33;2.63;;;24.70;48.90;;;;;;5099462;28;20218;-80
2021/04/15 14:05:45;;;;;;;4.40;2.77;;;24.60;45.30;;;;;;5093961;28;20232;-80
2021/04/15 14:08:50;;;;;;;4.63;2.43;;;24.60;47.00;;;;;;5098631;28;20246;-80
2021/04/15 14:11:45;;;;;;;1.80;1.70;;;24.70;48.00;;;;;;5090520;28;20450;-79
2021/04/15 14:14:37;;;;;;;3.00;1.93;;;24.90;47.00;;;;;;5094255;28;20222;-79
2021/04/15 14:17:28;;;;;;;4.37;1.70;;;25.30;46.70;;;;;;5087414;28;20218;-81
2021/04/15 14:20:26;;;;;;;3.13;1.97;;;25.70;46.40;;;;;;5083414;28;20260;-80
2021/04/15 14:23:16;;;;;;;3.43;1.70;;;26.30;43.80;;;;;;5096866;28;20639;-80
2021/04/15 14:26:05;;;;;;;2.13;1.83;;;26.80;43.20;;;;;;5088394;28;20224;-80
2021/04/15 14:28:52;;;;;;;3.90;2.20;;;26.90;40.80;;;;;;5096026;28;20244;-79
2021/04/15 14:31:41;;;;;;;2.03;1.90;;;26.90;40.80;;;;;;5097293;28;20207;-80
2021/04/15 14:34:30;;;;;;;2.60;1.67;;;26.70;40.60;;;;;;5087371;28;20211;-80
2021/04/15 14:37:25;;;;;;;3.20;1.80;;;26.40;43.10;;;;;;5097457;28;20238;-79
2021/04/15 14:40:31;;;;;;;3.23;1.67;;;26.00;41.60;;;;;;5093884;28;20247;-79
2021/04/15 14:43:20;;;;;;;2.67;1.70;;;25.50;42.50;;;;;;5089180;28;20213;-80
2021/04/15 14:46:17;;;;;;;3.87;1.73;;;25.00;42.00;;;;;;5087308;28;20274;-81
2021/04/15 14:49:11;;;;;;;2.40;1.73;;;24.50;43.30;;;;;;5097159;28;20332;-80
2021/04/15 14:52:09;;;;;;;3.43;1.90;;;23.90;46.30;;;;;;5092889;28;20799;-79
2021/04/15 14:54:54;;;;;;;3.93;1.73;;;23.40;44.80;;;;;;5090473;28;20499;-80
2021/04/15 14:57:39;;;;;;;4.50;1.93;;;23.00;45.70;;;;;;5077475;28;20236;-80
2021/04/15 15:00:27;;;;;;;1.97;1.70;;;22.70;44.10;;;;;;5085949;28;20224;-80
2021/04/15 15:03:16;;;;;;;2.10;1.87;;;22.50;44.80;;;;;;5096024;28;20225;-80
2021/04/15 15:06:04;;;;;;;3.17;1.90;;;22.40;48.90;;;;;;5096461;28;20211;-79
2021/04/15 15:08:49;;;;;;;3.13;1.90;;;22.30;46.80;;;;;;5081127;28;20213;-79
2021/04/15 15:11:36;;;;;;;4.63;2.00;;;22.40;45.20;;;;;;5080976;28;20290;-80